sensor_id;sensor_type;location;lat;lon;timestamp;temperature;humidity
16229;DHT22;8222;51.462;12.630;2023-04-03T00:01:45;3.40;99.90
16229;DHT22;8222;51.462;12.630;2023-04-03T00:04:11;3.40;99.90
16229;DHT22;8222;51.462;12.630;2023-04-03T00:06:36;3.30;99.90
16229;DHT22;8222;51.462;12.630;2023-04-03T00:09:04;3.60;99.90
16229;DHT22;8222;51.462;12.630;2023-04-03T00:11:30;3.20;99.90
16229;DHT22;8222;51.462;12.630;2023-04-03T00:13:56;3.20;99.90
16229;DHT22;8222;51.462;12.630;2023-04-03T00:16:22;3.20;99.90
16229;DHT22;8222;51.462;12.630;2023-04-03T00:18:50;3.80;99.90
16229;DHT22;8222;51.462;12.630;2023-04-03T00:21:15;3.10;99.90
16229;DHT22;8222;51.462;12.630;2023-04-03T00:23:41;3.20;99.90
16229;DHT22;8222;51.462;12.630;2023-04-03T00:26:07;3.10;99.90
16229;DHT22;8222;51.462;12.630;2023-04-03T00:28:34;3.20;99.90
16229;DHT22;8222;51.462;12.630;2023-04-03T00:31:02;3.30;99.90
16229;DHT22;8222;51.462;12.630;2023-04-03T00:33:28;3.20;99.90
16229;DHT22;8222;51.462;12.630;2023-04-03T00:35:55;3.10;99.90
16229;DHT22;8222;51.462;12.630;2023-04-03T00:38:21;2.90;99.90
16229;DHT22;8222;51.462;12.630;2023-04-03T00:40:48;2.80;99.90
16229;DHT22;8222;51.462;12.630;2023-04-03T00:45:44;2.80;99.90
16229;DHT22;8222;51.462;12.630;2023-04-03T00:48:15;2.70;99.90
16229;DHT22;8222;51.462;12.630;2023-04-03T00:50:44;2.60;99.90
16229;DHT22;8222;51.462;12.630;2023-04-03T00:53:27;2.60;99.90
16229;DHT22;8222;51.462;12.630;2023-04-03T00:55:56;2.50;99.90
16229;DHT22;8222;51.462;12.630;2023-04-03T00:58:37;2.40;99.90
16229;DHT22;8222;51.462;12.630;2023-04-03T01:01:08;2.40;99.90
16229;DHT22;8222;51.462;12.630;2023-04-03T01:03:35;2.50;99.90
16229;DHT22;8222;51.462;12.630;2023-04-03T01:06:02;2.40;99.90
16229;DHT22;8222;51.462;12.630;2023-04-03T01:08:28;2.40;99.90
16229;DHT22;8222;51.462;12.630;2023-04-03T01:10:54;2.30;99.90
16229;DHT22;8222;51.462;12.630;2023-04-03T01:13:26;2.30;99.90
16229;DHT22;8222;51.462;12.630;2023-04-03T01:15:53;2.80;99.90
16229;DHT22;8222;51.462;12.630;2023-04-03T01:18:19;2.30;99.90
16229;DHT22;8222;51.462;12.630;2023-04-03T01:28:11;2.10;99.90
16229;DHT22;8222;51.462;12.630;2023-04-03T01:33:28;2.00;99.90
16229;DHT22;8222;51.462;12.630;2023-04-03T01:35:55;1.90;99.90
16229;DHT22;8222;51.462;12.630;2023-04-03T01:38:21;2.60;99.90
16229;DHT22;8222;51.462;12.630;2023-04-03T01:40:47;2.00;99.90
16229;DHT22;8222;51.462;12.630;2023-04-03T01:43:12;1.90;99.90
16229;DHT22;8222;51.462;12.630;2023-04-03T01:45:38;1.80;99.90
16229;DHT22;8222;51.462;12.630;2023-04-03T01:48:04;1.80;99.90
16229;DHT22;8222;51.462;12.630;2023-04-03T01:50:30;1.70;99.90
16229;DHT22;8222;51.462;12.630;2023-04-03T01:52:57;1.60;99.90
16229;DHT22;8222;51.462;12.630;2023-04-03T01:55:23;1.80;99.90
16229;DHT22;8222;51.462;12.630;2023-04-03T01:57:48;2.00;99.90
16229;DHT22;8222;51.462;12.630;2023-04-03T02:00:16;1.60;99.90
16229;DHT22;8222;51.462;12.630;2023-04-03T02:02:42;1.50;99.90
16229;DHT22;8222;51.462;12.630;2023-04-03T02:05:08;1.50;99.90
16229;DHT22;8222;51.462;12.630;2023-04-03T02:07:35;1.50;99.90
16229;DHT22;8222;51.462;12.630;2023-04-03T02:10:01;1.50;99.90
16229;DHT22;8222;51.462;12.630;2023-04-03T02:12:27;1.60;99.90
16229;DHT22;8222;51.462;12.630;2023-04-03T02:14:53;1.50;99.90
16229;DHT22;8222;51.462;12.630;2023-04-03T02:17:18;1.40;99.90
16229;DHT22;8222;51.462;12.630;2023-04-03T02:19:44;1.40;99.90
16229;DHT22;8222;51.462;12.630;2023-04-03T02:22:11;1.30;99.90
16229;DHT22;8222;51.462;12.630;2023-04-03T02:24:37;1.20;99.90
16229;DHT22;8222;51.462;12.630;2023-04-03T02:27:04;1.20;99.90
16229;DHT22;8222;51.462;12.630;2023-04-03T02:29:30;1.50;99.90
16229;DHT22;8222;51.462;12.630;2023-04-03T02:31:58;1.20;99.90
16229;DHT22;8222;51.462;12.630;2023-04-03T02:34:23;1.20;99.90
16229;DHT22;8222;51.462;12.630;2023-04-03T02:36:49;1.20;99.90
16229;DHT22;8222;51.462;12.630;2023-04-03T02:39:16;1.10;99.90
16229;DHT22;8222;51.462;12.630;2023-04-03T02:41:41;1.00;99.90
16229;DHT22;8222;51.462;12.630;2023-04-03T02:44:09;1.00;99.90
16229;DHT22;8222;51.462;12.630;2023-04-03T02:46:35;1.00;99.90
16229;DHT22;8222;51.462;12.630;2023-04-03T02:49:03;1.00;99.90
16229;DHT22;8222;51.462;12.630;2023-04-03T02:51:29;1.50;99.90
16229;DHT22;8222;51.462;12.630;2023-04-03T02:53:57;1.00;99.90
16229;DHT22;8222;51.462;12.630;2023-04-03T02:56:23;0.90;99.90
16229;DHT22;8222;51.462;12.630;2023-04-03T02:58:48;0.90;99.90
16229;DHT22;8222;51.462;12.630;2023-04-03T03:01:17;0.80;99.90
16229;DHT22;8222;51.462;12.630;2023-04-03T03:03:45;0.80;99.90
16229;DHT22;8222;51.462;12.630;2023-04-03T03:06:13;0.80;99.90
16229;DHT22;8222;51.462;12.630;2023-04-03T03:08:40;0.90;99.90
16229;DHT22;8222;51.462;12.630;2023-04-03T03:11:06;1.00;99.90
16229;DHT22;8222;51.462;12.630;2023-04-03T03:13:34;0.90;99.90
16229;DHT22;8222;51.462;12.630;2023-04-03T03:16:00;0.90;99.90
16229;DHT22;8222;51.462;12.630;2023-04-03T03:18:28;0.80;99.90
16229;DHT22;8222;51.462;12.630;2023-04-03T03:20:59;0.80;99.90
16229;DHT22;8222;51.462;12.630;2023-04-03T03:23:26;0.80;99.90
16229;DHT22;8222;51.462;12.630;2023-04-03T03:26:04;0.70;99.90
16229;DHT22;8222;51.462;12.630;2023-04-03T03:28:30;0.70;99.90
16229;DHT22;8222;51.462;12.630;2023-04-03T03:30:58;0.70;99.90
16229;DHT22;8222;51.462;12.630;2023-04-03T03:33:25;0.60;99.90
16229;DHT22;8222;51.462;12.630;2023-04-03T03:35:51;0.50;99.90
16229;DHT22;8222;51.462;12.630;2023-04-03T03:38:17;0.50;99.90
16229;DHT22;8222;51.462;12.630;2023-04-03T03:40:43;0.50;99.90
16229;DHT22;8222;51.462;12.630;2023-04-03T03:43:10;0.50;99.90
16229;DHT22;8222;51.462;12.630;2023-04-03T03:45:36;0.50;99.90
16229;DHT22;8222;51.462;12.630;2023-04-03T03:48:04;0.50;99.90
16229;DHT22;8222;51.462;12.630;2023-04-03T03:50:29;0.50;99.90
16229;DHT22;8222;51.462;12.630;2023-04-03T03:52:55;0.50;99.90
16229;DHT22;8222;51.462;12.630;2023-04-03T03:55:23;0.50;99.90
16229;DHT22;8222;51.462;12.630;2023-04-03T03:57:49;1.50;99.90
16229;DHT22;8222;51.462;12.630;2023-04-03T04:00:15;0.70;99.90
16229;DHT22;8222;51.462;12.630;2023-04-03T04:02:42;0.60;99.90
16229;DHT22;8222;51.462;12.630;2023-04-03T04:05:10;0.50;99.90
16229;DHT22;8222;51.462;12.630;2023-04-03T04:07:35;0.50;99.90
16229;DHT22;8222;51.462;12.630;2023-04-03T04:10:02;0.50;99.90
16229;DHT22;8222;51.462;12.630;2023-04-03T04:12:28;0.50;99.90
16229;DHT22;8222;51.462;12.630;2023-04-03T04:14:54;0.40;99.90
16229;DHT22;8222;51.462;12.630;2023-04-03T04:17:19;0.40;99.90
16229;DHT22;8222;51.462;12.630;2023-04-03T04:19:45;0.40;99.90
16229;DHT22;8222;51.462;12.630;2023-04-03T04:22:11;0.40;99.90
16229;DHT22;8222;51.462;12.630;2023-04-03T04:24:36;0.10;99.90
16229;DHT22;8222;51.462;12.630;2023-04-03T04:27:02;0.30;99.90
16229;DHT22;8222;51.462;12.630;2023-04-03T04:29:28;0.40;99.90
16229;DHT22;8222;51.462;12.630;2023-04-03T04:31:54;0.30;99.90
16229;DHT22;8222;51.462;12.630;2023-04-03T04:34:19;0.30;99.90
16229;DHT22;8222;51.462;12.630;2023-04-03T04:36:45;0.40;99.90
16229;DHT22;8222;51.462;12.630;2023-04-03T04:39:12;0.40;99.90
16229;DHT22;8222;51.462;12.630;2023-04-03T04:41:38;0.40;99.90
16229;DHT22;8222;51.462;12.630;2023-04-03T04:44:04;0.50;99.90
16229;DHT22;8222;51.462;12.630;2023-04-03T04:46:32;0.50;99.90
16229;DHT22;8222;51.462;12.630;2023-04-03T04:48:57;0.60;99.90
16229;DHT22;8222;51.462;12.630;2023-04-03T04:51:23;0.60;99.90
16229;DHT22;8222;51.462;12.630;2023-04-03T04:53:49;0.60;99.90
16229;DHT22;8222;51.462;12.630;2023-04-03T04:56:14;0.60;99.90
16229;DHT22;8222;51.462;12.630;2023-04-03T04:58:40;0.50;99.90
16229;DHT22;8222;51.462;12.630;2023-04-03T05:01:08;0.80;99.90
16229;DHT22;8222;51.462;12.630;2023-04-03T05:03:34;0.50;99.90
16229;DHT22;8222;51.462;12.630;2023-04-03T05:06:00;1.10;99.90
16229;DHT22;8222;51.462;12.630;2023-04-03T05:08:26;0.50;99.90
16229;DHT22;8222;51.462;12.630;2023-04-03T05:10:52;0.50;99.90
16229;DHT22;8222;51.462;12.630;2023-04-03T05:13:19;0.60;99.90
16229;DHT22;8222;51.462;12.630;2023-04-03T05:15:45;0.50;99.90
16229;DHT22;8222;51.462;12.630;2023-04-03T05:18:13;0.50;99.90
16229;DHT22;8222;51.462;12.630;2023-04-03T05:20:39;0.50;99.90
16229;DHT22;8222;51.462;12.630;2023-04-03T05:23:06;0.50;99.90
16229;DHT22;8222;51.462;12.630;2023-04-03T05:25:32;0.60;99.90
16229;DHT22;8222;51.462;12.630;2023-04-03T05:27:58;0.60;99.90
16229;DHT22;8222;51.462;12.630;2023-04-03T05:30:24;1.40;99.90
16229;DHT22;8222;51.462;12.630;2023-04-03T05:32:51;0.70;99.90
16229;DHT22;8222;51.462;12.630;2023-04-03T05:35:17;0.80;99.90
16229;DHT22;8222;51.462;12.630;2023-04-03T05:37:43;0.80;99.90
16229;DHT22;8222;51.462;12.630;2023-04-03T05:40:09;0.80;99.90
16229;DHT22;8222;51.462;12.630;2023-04-03T05:42:34;0.80;99.90
16229;DHT22;8222;51.462;12.630;2023-04-03T05:45:00;1.00;99.90
16229;DHT22;8222;51.462;12.630;2023-04-03T05:47:28;1.00;99.90
16229;DHT22;8222;51.462;12.630;2023-04-03T05:49:53;1.20;99.90
16229;DHT22;8222;51.462;12.630;2023-04-03T05:52:30;1.10;99.90
16229;DHT22;8222;51.462;12.630;2023-04-03T05:54:56;1.20;99.90
16229;DHT22;8222;51.462;12.630;2023-04-03T05:57:23;1.30;99.90
16229;DHT22;8222;51.462;12.630;2023-04-03T05:59:49;1.40;99.90
16229;DHT22;8222;51.462;12.630;2023-04-03T06:02:17;1.40;99.90
16229;DHT22;8222;51.462;12.630;2023-04-03T06:04:45;1.50;99.90
16229;DHT22;8222;51.462;12.630;2023-04-03T06:07:16;1.60;99.90
16229;DHT22;8222;51.462;12.630;2023-04-03T06:09:43;1.60;99.90
16229;DHT22;8222;51.462;12.630;2023-04-03T06:12:09;1.70;99.90
16229;DHT22;8222;51.462;12.630;2023-04-03T06:14:37;1.70;99.90
16229;DHT22;8222;51.462;12.630;2023-04-03T06:17:03;1.70;99.90
16229;DHT22;8222;51.462;12.630;2023-04-03T06:19:29;1.70;99.90
16229;DHT22;8222;51.462;12.630;2023-04-03T06:21:57;1.80;99.90
16229;DHT22;8222;51.462;12.630;2023-04-03T06:24:22;1.90;99.90
16229;DHT22;8222;51.462;12.630;2023-04-03T06:26:50;2.00;99.90
16229;DHT22;8222;51.462;12.630;2023-04-03T06:29:18;2.00;99.90
16229;DHT22;8222;51.462;12.630;2023-04-03T06:31:44;2.10;99.90
16229;DHT22;8222;51.462;12.630;2023-04-03T06:34:12;2.20;99.90
16229;DHT22;8222;51.462;12.630;2023-04-03T06:36:39;2.40;99.90
16229;DHT22;8222;51.462;12.630;2023-04-03T06:39:05;2.50;99.90
16229;DHT22;8222;51.462;12.630;2023-04-03T06:41:31;2.60;99.90
16229;DHT22;8222;51.462;12.630;2023-04-03T06:43:57;2.60;99.90
16229;DHT22;8222;51.462;12.630;2023-04-03T06:46:25;2.60;99.90
16229;DHT22;8222;51.462;12.630;2023-04-03T06:48:51;2.60;99.90
16229;DHT22;8222;51.462;12.630;2023-04-03T06:51:29;2.70;99.90
16229;DHT22;8222;51.462;12.630;2023-04-03T06:53:58;2.80;99.90
16229;DHT22;8222;51.462;12.630;2023-04-03T06:56:24;2.80;99.90
16229;DHT22;8222;51.462;12.630;2023-04-03T06:58:51;2.80;99.90
16229;DHT22;8222;51.462;12.630;2023-04-03T07:01:20;2.90;99.90
16229;DHT22;8222;51.462;12.630;2023-04-03T07:03:47;3.10;99.90
16229;DHT22;8222;51.462;12.630;2023-04-03T07:06:14;3.10;99.90
16229;DHT22;8222;51.462;12.630;2023-04-03T07:08:43;3.30;99.90
16229;DHT22;8222;51.462;12.630;2023-04-03T07:11:10;3.50;99.90
16229;DHT22;8222;51.462;12.630;2023-04-03T07:13:36;3.40;99.90
16229;DHT22;8222;51.462;12.630;2023-04-03T07:16:02;3.30;99.90
16229;DHT22;8222;51.462;12.630;2023-04-03T07:18:30;3.30;99.90
16229;DHT22;8222;51.462;12.630;2023-04-03T07:20:56;3.40;99.90
16229;DHT22;8222;51.462;12.630;2023-04-03T07:23:22;3.50;99.90
16229;DHT22;8222;51.462;12.630;2023-04-03T07:25:49;3.50;99.90
16229;DHT22;8222;51.462;12.630;2023-04-03T07:28:16;3.70;99.90
16229;DHT22;8222;51.462;12.630;2023-04-03T07:30:47;3.80;99.90
16229;DHT22;8222;51.462;12.630;2023-04-03T07:33:16;3.80;99.90
16229;DHT22;8222;51.462;12.630;2023-04-03T07:35:43;3.70;99.90
16229;DHT22;8222;51.462;12.630;2023-04-03T07:38:10;3.80;99.90
16229;DHT22;8222;51.462;12.630;2023-04-03T07:40:36;3.90;99.90
16229;DHT22;8222;51.462;12.630;2023-04-03T07:43:02;3.80;99.90
16229;DHT22;8222;51.462;12.630;2023-04-03T07:45:28;3.80;99.90
16229;DHT22;8222;51.462;12.630;2023-04-03T07:47:54;4.10;99.90
16229;DHT22;8222;51.462;12.630;2023-04-03T07:50:22;4.40;99.90
16229;DHT22;8222;51.462;12.630;2023-04-03T07:52:48;3.50;99.90
16229;DHT22;8222;51.462;12.630;2023-04-03T07:55:14;3.60;99.90
16229;DHT22;8222;51.462;12.630;2023-04-03T07:57:40;3.70;99.90
16229;DHT22;8222;51.462;12.630;2023-04-03T08:00:07;3.70;99.90
16229;DHT22;8222;51.462;12.630;2023-04-03T08:02:36;3.70;99.90
16229;DHT22;8222;51.462;12.630;2023-04-03T08:05:02;3.70;99.90
16229;DHT22;8222;51.462;12.630;2023-04-03T08:07:28;3.90;99.90
16229;DHT22;8222;51.462;12.630;2023-04-03T08:09:53;4.60;99.90
16229;DHT22;8222;51.462;12.630;2023-04-03T08:12:21;3.90;99.90
16229;DHT22;8222;51.462;12.630;2023-04-03T08:14:47;3.70;99.90
16229;DHT22;8222;51.462;12.630;2023-04-03T08:17:12;3.60;99.90
16229;DHT22;8222;51.462;12.630;2023-04-03T08:19:39;3.50;99.90
16229;DHT22;8222;51.462;12.630;2023-04-03T08:22:07;3.60;99.90
16229;DHT22;8222;51.462;12.630;2023-04-03T08:24:33;3.80;99.90
16229;DHT22;8222;51.462;12.630;2023-04-03T08:26:59;4.20;99.90
16229;DHT22;8222;51.462;12.630;2023-04-03T08:29:25;4.40;99.90
16229;DHT22;8222;51.462;12.630;2023-04-03T08:31:51;4.60;99.90
16229;DHT22;8222;51.462;12.630;2023-04-03T08:34:18;4.50;99.90
16229;DHT22;8222;51.462;12.630;2023-04-03T08:36:44;4.70;99.90
16229;DHT22;8222;51.462;12.630;2023-04-03T08:39:12;5.30;99.90
16229;DHT22;8222;51.462;12.630;2023-04-03T08:41:43;4.90;99.90
16229;DHT22;8222;51.462;12.630;2023-04-03T08:44:47;4.90;99.90
16229;DHT22;8222;51.462;12.630;2023-04-03T08:47:18;4.70;99.90
16229;DHT22;8222;51.462;12.630;2023-04-03T08:49:49;4.80;99.90
16229;DHT22;8222;51.462;12.630;2023-04-03T09:00:37;4.90;99.90
16229;DHT22;8222;51.462;12.630;2023-04-03T09:03:12;4.80;99.90
16229;DHT22;8222;51.462;12.630;2023-04-03T09:05:40;5.00;99.90
16229;DHT22;8222;51.462;12.630;2023-04-03T09:08:30;4.90;99.90
16229;DHT22;8222;51.462;12.630;2023-04-03T09:13:49;5.50;99.90
16229;DHT22;8222;51.462;12.630;2023-04-03T09:19:36;5.90;99.90
16229;DHT22;8222;51.462;12.630;2023-04-03T09:22:21;5.90;99.90
16229;DHT22;8222;51.462;12.630;2023-04-03T09:27:33;6.30;99.90
16229;DHT22;8222;51.462;12.630;2023-04-03T09:29:58;6.10;99.90
16229;DHT22;8222;51.462;12.630;2023-04-03T09:32:31;5.90;99.90
16229;DHT22;8222;51.462;12.630;2023-04-03T09:35:02;5.50;99.90
16229;DHT22;8222;51.462;12.630;2023-04-03T09:37:50;5.70;99.90
16229;DHT22;8222;51.462;12.630;2023-04-03T09:43:00;5.80;99.90
16229;DHT22;8222;51.462;12.630;2023-04-03T09:50:55;5.50;99.90
16229;DHT22;8222;51.462;12.630;2023-04-03T09:53:34;5.60;99.90
16229;DHT22;8222;51.462;12.630;2023-04-03T09:59:05;6.10;99.90
16229;DHT22;8222;51.462;12.630;2023-04-03T10:01:37;6.30;99.90
16229;DHT22;8222;51.462;12.630;2023-04-03T10:04:10;6.30;99.90
16229;DHT22;8222;51.462;12.630;2023-04-03T10:06:54;6.50;99.90
16229;DHT22;8222;51.462;12.630;2023-04-03T10:14:38;7.30;98.90
16229;DHT22;8222;51.462;12.630;2023-04-03T10:20:00;7.60;97.70
16229;DHT22;8222;51.462;12.630;2023-04-03T10:23:02;8.30;97.60
16229;DHT22;8222;51.462;12.630;2023-04-03T10:26:03;8.40;91.90
16229;DHT22;8222;51.462;12.630;2023-04-03T10:34:43;8.20;93.50
16229;DHT22;8222;51.462;12.630;2023-04-03T10:37:23;9.10;96.60
16229;DHT22;8222;51.462;12.630;2023-04-03T10:40:01;8.20;97.40
16229;DHT22;8222;51.462;12.630;2023-04-03T10:42:49;8.10;99.90
16229;DHT22;8222;51.462;12.630;2023-04-03T10:45:20;7.90;98.80
16229;DHT22;8222;51.462;12.630;2023-04-03T10:50:47;8.30;96.50
16229;DHT22;8222;51.462;12.630;2023-04-03T10:56:13;9.00;93.30
16229;DHT22;8222;51.462;12.630;2023-04-03T10:58:45;9.20;89.50
16229;DHT22;8222;51.462;12.630;2023-04-03T11:01:20;9.10;85.00
16229;DHT22;8222;51.462;12.630;2023-04-03T11:03:52;9.00;89.20
16229;DHT22;8222;51.462;12.630;2023-04-03T11:06:20;8.80;88.40
16229;DHT22;8222;51.462;12.630;2023-04-03T11:11:22;8.10;96.20
16229;DHT22;8222;51.462;12.630;2023-04-03T11:16:45;8.30;94.10
16229;DHT22;8222;51.462;12.630;2023-04-03T11:19:29;8.50;96.10
16229;DHT22;8222;51.462;12.630;2023-04-03T11:22:04;8.40;93.90
16229;DHT22;8222;51.462;12.630;2023-04-03T11:24:34;8.50;94.00
16229;DHT22;8222;51.462;12.630;2023-04-03T11:27:02;8.30;95.20
16229;DHT22;8222;51.462;12.630;2023-04-03T11:29:36;8.10;92.20
16229;DHT22;8222;51.462;12.630;2023-04-03T11:32:50;8.10;91.70
16229;DHT22;8222;51.462;12.630;2023-04-03T11:35:17;8.10;92.20
16229;DHT22;8222;51.462;12.630;2023-04-03T11:37:48;8.40;89.10
16229;DHT22;8222;51.462;12.630;2023-04-03T11:42:45;8.20;92.90
16229;DHT22;8222;51.462;12.630;2023-04-03T11:50:44;8.40;89.70
16229;DHT22;8222;51.462;12.630;2023-04-03T11:58:17;8.50;90.60
16229;DHT22;8222;51.462;12.630;2023-04-03T12:08:54;7.80;92.50
16229;DHT22;8222;51.462;12.630;2023-04-03T12:11:32;7.90;92.80
16229;DHT22;8222;51.462;12.630;2023-04-03T12:16:33;9.50;91.00
16229;DHT22;8222;51.462;12.630;2023-04-03T12:19:32;8.90;90.00
16229;DHT22;8222;51.462;12.630;2023-04-03T12:24:29;8.60;91.60
16229;DHT22;8222;51.462;12.630;2023-04-03T12:30:12;8.50;91.60
16229;DHT22;8222;51.462;12.630;2023-04-03T12:38:52;8.40;92.10
16229;DHT22;8222;51.462;12.630;2023-04-03T12:46:53;7.90;92.10
16229;DHT22;8222;51.462;12.630;2023-04-03T12:49:41;8.10;95.80
16229;DHT22;8222;51.462;12.630;2023-04-03T12:52:28;8.20;96.70
16229;DHT22;8222;51.462;12.630;2023-04-03T12:54:56;8.40;93.40
16229;DHT22;8222;51.462;12.630;2023-04-03T12:57:25;8.50;90.40
16229;DHT22;8222;51.462;12.630;2023-04-03T12:59:54;9.10;91.80
16229;DHT22;8222;51.462;12.630;2023-04-03T13:02:32;8.20;91.90
16229;DHT22;8222;51.462;12.630;2023-04-03T13:05:06;8.10;94.00
16229;DHT22;8222;51.462;12.630;2023-04-03T13:07:37;8.00;94.60
16229;DHT22;8222;51.462;12.630;2023-04-03T13:12:47;7.90;95.90
16229;DHT22;8222;51.462;12.630;2023-04-03T13:15:41;7.80;95.20
16229;DHT22;8222;51.462;12.630;2023-04-03T13:18:26;7.90;95.70
16229;DHT22;8222;51.462;12.630;2023-04-03T13:20:52;8.10;94.70
16229;DHT22;8222;51.462;12.630;2023-04-03T13:23:21;8.00;94.20
16229;DHT22;8222;51.462;12.630;2023-04-03T13:25:48;8.60;91.80
16229;DHT22;8222;51.462;12.630;2023-04-03T13:28:19;8.00;94.10
16229;DHT22;8222;51.462;12.630;2023-04-03T13:31:01;8.00;93.60
16229;DHT22;8222;51.462;12.630;2023-04-03T13:33:30;8.20;91.40
16229;DHT22;8222;51.462;12.630;2023-04-03T13:36:17;8.00;92.30
16229;DHT22;8222;51.462;12.630;2023-04-03T13:38:43;7.80;93.20
16229;DHT22;8222;51.462;12.630;2023-04-03T13:41:25;7.90;92.90
16229;DHT22;8222;51.462;12.630;2023-04-03T13:43:51;7.90;91.80
16229;DHT22;8222;51.462;12.630;2023-04-03T13:48:49;7.50;90.60
16229;DHT22;8222;51.462;12.630;2023-04-03T13:51:24;7.30;88.10
16229;DHT22;8222;51.462;12.630;2023-04-03T14:01:43;7.30;94.00
16229;DHT22;8222;51.462;12.630;2023-04-03T14:06:41;7.30;97.80
16229;DHT22;8222;51.462;12.630;2023-04-03T14:09:07;7.00;92.40
16229;DHT22;8222;51.462;12.630;2023-04-03T14:11:34;6.90;93.70
16229;DHT22;8222;51.462;12.630;2023-04-03T14:14:05;6.90;94.80
16229;DHT22;8222;51.462;12.630;2023-04-03T14:16:36;7.00;97.00
16229;DHT22;8222;51.462;12.630;2023-04-03T14:19:03;7.00;98.70
16229;DHT22;8222;51.462;12.630;2023-04-03T14:21:29;6.90;99.90
16229;DHT22;8222;51.462;12.630;2023-04-03T14:23:54;7.10;99.90
16229;DHT22;8222;51.462;12.630;2023-04-03T14:26:22;7.10;99.90
16229;DHT22;8222;51.462;12.630;2023-04-03T14:28:54;6.90;99.30
16229;DHT22;8222;51.462;12.630;2023-04-03T14:31:22;7.00;99.90
16229;DHT22;8222;51.462;12.630;2023-04-03T14:33:48;6.90;99.60
16229;DHT22;8222;51.462;12.630;2023-04-03T14:36:16;6.90;99.40
16229;DHT22;8222;51.462;12.630;2023-04-03T14:38:43;6.80;96.90
16229;DHT22;8222;51.462;12.630;2023-04-03T14:41:12;6.90;98.90
16229;DHT22;8222;51.462;12.630;2023-04-03T14:43:38;6.80;99.90
16229;DHT22;8222;51.462;12.630;2023-04-03T14:46:05;6.60;99.90
16229;DHT22;8222;51.462;12.630;2023-04-03T14:48:31;6.70;99.90
16229;DHT22;8222;51.462;12.630;2023-04-03T14:50:57;6.60;97.70
16229;DHT22;8222;51.462;12.630;2023-04-03T14:53:24;6.50;99.50
16229;DHT22;8222;51.462;12.630;2023-04-03T14:55:54;6.50;99.40
16229;DHT22;8222;51.462;12.630;2023-04-03T14:58:20;6.30;99.10
16229;DHT22;8222;51.462;12.630;2023-04-03T15:00:47;6.50;99.30
16229;DHT22;8222;51.462;12.630;2023-04-03T15:03:18;6.30;99.60
16229;DHT22;8222;51.462;12.630;2023-04-03T15:05:45;6.30;99.20
16229;DHT22;8222;51.462;12.630;2023-04-03T15:08:20;6.60;98.60
16229;DHT22;8222;51.462;12.630;2023-04-03T15:10:47;6.50;99.60
16229;DHT22;8222;51.462;12.630;2023-04-03T15:13:13;6.40;98.90
16229;DHT22;8222;51.462;12.630;2023-04-03T15:15:40;6.30;97.40
16229;DHT22;8222;51.462;12.630;2023-04-03T15:18:06;6.30;98.80
16229;DHT22;8222;51.462;12.630;2023-04-03T15:20:31;6.50;98.50
16229;DHT22;8222;51.462;12.630;2023-04-03T15:23:00;6.50;98.60
16229;DHT22;8222;51.462;12.630;2023-04-03T15:25:27;6.50;99.00
16229;DHT22;8222;51.462;12.630;2023-04-03T15:27:54;6.30;97.40
16229;DHT22;8222;51.462;12.630;2023-04-03T15:30:20;6.20;97.80
16229;DHT22;8222;51.462;12.630;2023-04-03T15:32:47;6.30;99.90
16229;DHT22;8222;51.462;12.630;2023-04-03T15:35:13;6.30;99.90
16229;DHT22;8222;51.462;12.630;2023-04-03T15:37:38;6.30;99.90
16229;DHT22;8222;51.462;12.630;2023-04-03T15:40:05;6.30;99.90
16229;DHT22;8222;51.462;12.630;2023-04-03T15:42:31;6.30;99.90
16229;DHT22;8222;51.462;12.630;2023-04-03T15:44:57;6.30;99.90
16229;DHT22;8222;51.462;12.630;2023-04-03T15:47:24;6.30;99.90
16229;DHT22;8222;51.462;12.630;2023-04-03T15:49:50;6.40;99.90
16229;DHT22;8222;51.462;12.630;2023-04-03T15:52:16;7.20;99.90
16229;DHT22;8222;51.462;12.630;2023-04-03T15:54:41;6.20;99.90
16229;DHT22;8222;51.462;12.630;2023-04-03T15:57:09;6.20;99.90
16229;DHT22;8222;51.462;12.630;2023-04-03T15:59:35;6.20;99.90
16229;DHT22;8222;51.462;12.630;2023-04-03T16:02:01;6.30;99.90
16229;DHT22;8222;51.462;12.630;2023-04-03T16:04:31;6.30;99.90
16229;DHT22;8222;51.462;12.630;2023-04-03T16:06:57;6.20;99.90
16229;DHT22;8222;51.462;12.630;2023-04-03T16:09:26;6.10;99.90
16229;DHT22;8222;51.462;12.630;2023-04-03T16:11:52;6.00;99.90
16229;DHT22;8222;51.462;12.630;2023-04-03T16:14:17;6.00;99.90
16229;DHT22;8222;51.462;12.630;2023-04-03T16:16:43;6.00;99.90
16229;DHT22;8222;51.462;12.630;2023-04-03T16:19:09;6.00;99.90
16229;DHT22;8222;51.462;12.630;2023-04-03T16:21:35;6.10;99.90
16229;DHT22;8222;51.462;12.630;2023-04-03T16:24:01;6.00;99.90
16229;DHT22;8222;51.462;12.630;2023-04-03T16:26:27;5.90;99.90
16229;DHT22;8222;51.462;12.630;2023-04-03T16:28:53;5.90;99.90
16229;DHT22;8222;51.462;12.630;2023-04-03T16:31:19;6.00;99.90
16229;DHT22;8222;51.462;12.630;2023-04-03T16:33:46;6.00;99.90
16229;DHT22;8222;51.462;12.630;2023-04-03T16:36:14;6.10;99.90
16229;DHT22;8222;51.462;12.630;2023-04-03T16:38:39;6.30;99.90
16229;DHT22;8222;51.462;12.630;2023-04-03T16:41:05;6.20;99.90
16229;DHT22;8222;51.462;12.630;2023-04-03T16:43:32;6.10;99.90
16229;DHT22;8222;51.462;12.630;2023-04-03T16:46:00;6.00;99.90
16229;DHT22;8222;51.462;12.630;2023-04-03T16:48:28;5.90;99.90
16229;DHT22;8222;51.462;12.630;2023-04-03T16:50:54;5.80;99.90
16229;DHT22;8222;51.462;12.630;2023-04-03T16:53:23;5.80;99.90
16229;DHT22;8222;51.462;12.630;2023-04-03T16:55:51;5.80;99.90
16229;DHT22;8222;51.462;12.630;2023-04-03T16:58:17;6.00;99.90
16229;DHT22;8222;51.462;12.630;2023-04-03T17:00:43;5.90;99.90
16229;DHT22;8222;51.462;12.630;2023-04-03T17:03:09;6.10;99.90
16229;DHT22;8222;51.462;12.630;2023-04-03T17:05:35;6.50;99.90
16229;DHT22;8222;51.462;12.630;2023-04-03T17:08:02;5.90;99.90
16229;DHT22;8222;51.462;12.630;2023-04-03T17:10:28;5.80;99.90
16229;DHT22;8222;51.462;12.630;2023-04-03T17:12:54;5.70;99.90
16229;DHT22;8222;51.462;12.630;2023-04-03T17:15:20;5.70;99.90
16229;DHT22;8222;51.462;12.630;2023-04-03T17:17:47;5.80;99.90
16229;DHT22;8222;51.462;12.630;2023-04-03T17:20:14;5.90;99.90
16229;DHT22;8222;51.462;12.630;2023-04-03T17:22:39;5.80;99.90
16229;DHT22;8222;51.462;12.630;2023-04-03T17:25:05;5.90;99.90
16229;DHT22;8222;51.462;12.630;2023-04-03T17:27:31;5.90;99.90
16229;DHT22;8222;51.462;12.630;2023-04-03T17:29:59;5.90;99.90
16229;DHT22;8222;51.462;12.630;2023-04-03T17:32:24;5.80;99.90
16229;DHT22;8222;51.462;12.630;2023-04-03T17:34:50;5.60;99.90
16229;DHT22;8222;51.462;12.630;2023-04-03T17:37:16;5.60;99.90
16229;DHT22;8222;51.462;12.630;2023-04-03T17:39:42;5.60;99.90
16229;DHT22;8222;51.462;12.630;2023-04-03T17:42:11;5.60;99.90
16229;DHT22;8222;51.462;12.630;2023-04-03T17:44:36;5.40;99.90
16229;DHT22;8222;51.462;12.630;2023-04-03T17:47:04;5.40;99.90
16229;DHT22;8222;51.462;12.630;2023-04-03T17:49:30;5.50;99.90
16229;DHT22;8222;51.462;12.630;2023-04-03T17:51:57;5.50;99.90
16229;DHT22;8222;51.462;12.630;2023-04-03T17:54:23;5.50;99.90
16229;DHT22;8222;51.462;12.630;2023-04-03T17:56:51;5.50;99.90